Time,TemperatureF,DewpointF,PressureIn,WindDirection,WindDirectionDegrees,WindSpeedMPH,WindSpeedGustMPH,Humidity,HourlyPrecipIn,Conditions,Clouds,dailyrainin,SoftwareType,DateUTC
2017-03-30 00:13:00,33.4,23.0,30.24,NW,304,0.0,1.0,67,0.00,,,0.00,weatherlink.com 1.10,2017-03-30 04:13:00,
2017-03-30 00:27:00,33.2,23.0,30.25,NNW,337,0.0,1.0,67,0.00,,,0.00,weatherlink.com 1.10,2017-03-30 04:27:00,
2017-03-30 00:42:00,32.6,23.0,30.25,WNW,288,0.0,1.0,68,0.00,,,0.00,weatherlink.com 1.10,2017-03-30 04:42:00,
2017-03-30 00:57:00,32.3,23.0,30.25,WNW,288,1.0,1.0,68,0.00,,,0.00,weatherlink.com 1.10,2017-03-30 04:57:00,
2017-03-30 01:12:00,32.2,23.0,30.25,NW,316,1.0,1.0,68,0.00,,,0.00,weatherlink.com 1.10,2017-03-30 05:12:00,
2017-03-30 01:27:00,32.3,23.0,30.25,NW,316,0.0,1.0,69,0.00,,,0.00,weatherlink.com 1.10,2017-03-30 05:27:00,
2017-03-30 01:42:00,31.6,23.0,30.25,NW,318,0.0,1.0,70,0.00,,,0.00,weatherlink.com 1.10,2017-03-30 05:42:00,
2017-03-30 01:57:00,30.9,23.0,30.24,NW,317,0.0,1.0,72,0.00,,,0.00,weatherlink.com 1.10,2017-03-30 05:57:00,
2017-03-30 02:12:00,30.1,23.0,30.24,NW,318,1.0,1.0,76,0.00,,,0.00,weatherlink.com 1.10,2017-03-30 06:12:00,
2017-03-30 02:27:00,29.4,24.0,30.24,NNE,27,1.0,1.0,79,0.00,,,0.00,weatherlink.com 1.10,2017-03-30 06:27:00,
2017-03-30 02:42:00,29.0,24.0,30.25,NNE,27,0.0,1.0,80,0.00,,,0.00,weatherlink.com 1.10,2017-03-30 06:42:00,
2017-03-30 02:57:00,29.3,24.0,30.25,NNE,22,1.0,1.0,79,0.00,,,0.00,weatherlink.com 1.10,2017-03-30 06:57:00,
2017-03-30 03:12:00,29.0,23.0,30.25,NNE,22,0.0,0.0,79,0.00,,,0.00,weatherlink.com 1.10,2017-03-30 07:12:00,
2017-03-30 03:27:00,28.4,24.0,30.25,NNE,22,1.0,1.0,82,0.00,,,0.00,weatherlink.com 1.10,2017-03-30 07:27:00,
2017-03-30 03:42:00,28.1,24.0,30.25,NNE,22,1.0,1.0,83,0.00,,,0.00,weatherlink.com 1.10,2017-03-30 07:42:00,
2017-03-30 03:57:00,28.0,23.0,30.26,NE,36,2.0,2.0,82,0.00,,,0.00,weatherlink.com 1.10,2017-03-30 07:57:00,
2017-03-30 04:12:00,27.8,23.0,30.27,North,9,1.0,2.0,83,0.00,,,0.00,weatherlink.com 1.10,2017-03-30 08:12:00,
2017-03-30 04:27:00,27.9,23.0,30.26,North,6,0.0,1.0,83,0.00,,,0.00,weatherlink.com 1.10,2017-03-30 08:27:00,
2017-03-30 04:42:00,27.4,23.0,30.26,North,6,0.0,1.0,84,0.00,,,0.00,weatherlink.com 1.10,2017-03-30 08:42:00,
2017-03-30 04:58:00,27.0,23.0,30.26,North,6,0.0,1.0,85,0.00,,,0.00,weatherlink.com 1.10,2017-03-30 08:58:00,
2017-03-30 05:12:00,26.7,23.0,30.27,North,6,0.0,1.0,86,0.00,,,0.00,weatherlink.com 1.10,2017-03-30 09:12:00,
2017-03-30 05:28:00,26.4,23.0,30.28,North,8,1.0,1.0,87,0.00,,,0.00,weatherlink.com 1.10,2017-03-30 09:28:00,
2017-03-30 05:43:00,26.2,23.0,30.28,North,8,0.0,0.0,88,0.00,,,0.00,weatherlink.com 1.10,2017-03-30 09:43:00,
2017-03-30 05:58:00,26.0,23.0,30.28,North,8,0.0,1.0,89,0.00,,,0.00,weatherlink.com 1.10,2017-03-30 09:58:00,
2017-03-30 06:13:00,25.9,23.0,30.28,NE,37,0.0,1.0,90,0.00,,,0.00,weatherlink.com 1.10,2017-03-30 10:13:00,
2017-03-30 06:28:00,25.7,23.0,30.29,NE,37,0.0,1.0,90,0.00,,,0.00,weatherlink.com 1.10,2017-03-30 10:28:00,
2017-03-30 06:43:00,25.3,23.0,30.29,NE,37,0.0,0.0,90,0.00,,,0.00,weatherlink.com 1.10,2017-03-30 10:43:00,
2017-03-30 06:58:00,25.2,23.0,30.30,NE,36,0.0,1.0,91,0.00,,,0.00,weatherlink.com 1.10,2017-03-30 10:58:00,
2017-03-30 07:13:00,25.5,23.0,30.31,NE,38,0.0,1.0,91,0.00,,,0.00,weatherlink.com 1.10,2017-03-30 11:13:00,
2017-03-30 07:28:00,26.2,24.0,30.31,NE,37,0.0,0.0,91,0.00,,,0.00,weatherlink.com 1.10,2017-03-30 11:28:00,
2017-03-30 07:43:00,27.5,25.0,30.32,NE,37,0.0,1.0,91,0.00,,,0.00,weatherlink.com 1.10,2017-03-30 11:43:00,
2017-03-30 07:58:00,29.4,26.0,30.32,NE,37,0.0,1.0,88,0.00,,,0.00,weatherlink.com 1.10,2017-03-30 11:58:00,
2017-03-30 08:13:00,31.2,28.0,30.33,North,349,0.0,1.0,86,0.00,,,0.00,weatherlink.com 1.10,2017-03-30 12:13:00,
2017-03-30 08:28:00,33.7,25.0,30.32,NNW,342,2.0,4.0,71,0.00,,,0.00,weatherlink.com 1.10,2017-03-30 12:28:00,
2017-03-30 08:43:00,35.6,24.0,30.32,NE,34,4.0,4.0,63,0.00,,,0.00,weatherlink.com 1.10,2017-03-30 12:43:00,
2017-03-30 08:58:00,36.4,23.0,30.32,North,1,3.0,5.0,58,0.00,,,0.00,weatherlink.com 1.10,2017-03-30 12:58:00,
2017-03-30 09:13:00,36.8,22.0,30.31,NNW,345,6.0,7.0,55,0.00,,,0.00,weatherlink.com 1.10,2017-03-30 13:13:00,
2017-03-30 09:28:00,37.7,22.0,30.30,NNW,338,4.0,8.0,54,0.00,,,0.00,weatherlink.com 1.10,2017-03-30 13:28:00,
2017-03-30 09:43:00,37.0,22.0,30.31,ESE,122,3.0,9.0,54,0.00,,,0.00,weatherlink.com 1.10,2017-03-30 13:43:00,
2017-03-30 09:58:00,37.1,23.0,30.31,NE,56,3.0,6.0,56,0.00,,,0.00,weatherlink.com 1.10,2017-03-30 13:58:00,
2017-03-30 10:13:00,38.1,23.0,30.31,NNW,346,2.0,6.0,56,0.00,,,0.00,weatherlink.com 1.10,2017-03-30 14:13:00,
2017-03-30 10:28:00,38.9,23.0,30.31,NE,56,5.0,7.0,54,0.00,,,0.00,weatherlink.com 1.10,2017-03-30 14:28:00,
2017-03-30 10:43:00,39.1,22.0,30.30,North,359,2.0,5.0,51,0.00,,,0.00,weatherlink.com 1.10,2017-03-30 14:43:00,
2017-03-30 10:58:00,39.6,23.0,30.30,East,82,1.0,7.0,51,0.00,,,0.00,weatherlink.com 1.10,2017-03-30 14:58:00,
2017-03-30 11:14:00,40.8,23.0,30.30,NW,309,4.0,6.0,50,0.00,,,0.00,weatherlink.com 1.10,2017-03-30 15:14:00,
2017-03-30 11:28:00,40.5,24.0,30.29,NNE,15,4.0,6.0,52,0.00,,,0.00,weatherlink.com 1.10,2017-03-30 15:28:00,
2017-03-30 11:43:00,40.1,23.0,30.29,North,4,3.0,6.0,51,0.00,,,0.00,weatherlink.com 1.10,2017-03-30 15:43:00,
2017-03-30 11:58:00,40.7,24.0,30.27,ENE,65,7.0,7.0,51,0.00,,,0.00,weatherlink.com 1.10,2017-03-30 15:58:00,
2017-03-30 12:14:00,41.7,24.0,30.28,NNW,345,2.0,7.0,49,0.00,,,0.00,weatherlink.com 1.10,2017-03-30 16:14:00,
2017-03-30 12:29:00,42.4,24.0,30.27,ENE,60,4.0,9.0,49,0.00,,,0.00,weatherlink.com 1.10,2017-03-30 16:29:00,
2017-03-30 12:44:00,43.2,24.0,30.25,North,1,9.0,10.0,47,0.00,,,0.00,weatherlink.com 1.10,2017-03-30 16:44:00,
2017-03-30 12:59:00,42.5,23.0,30.25,NNW,348,6.0,9.0,47,0.00,,,0.00,weatherlink.com 1.10,2017-03-30 16:59:00,
2017-03-30 13:14:00,43.0,24.0,30.25,NE,54,3.0,6.0,48,0.00,,,0.00,weatherlink.com 1.10,2017-03-30 17:14:00,
2017-03-30 13:29:00,43.0,24.0,30.25,ENE,65,3.0,8.0,48,0.00,,,0.00,weatherlink.com 1.10,2017-03-30 17:29:00,
2017-03-30 13:44:00,42.6,24.0,30.24,North,355,0.0,6.0,49,0.00,,,0.00,weatherlink.com 1.10,2017-03-30 17:44:00,
2017-03-30 13:59:00,43.7,25.0,30.24,NE,49,3.0,5.0,48,0.00,,,0.00,weatherlink.com 1.10,2017-03-30 17:59:00,
2017-03-30 14:14:00,43.5,24.0,30.23,North,356,1.0,9.0,46,0.00,,,0.00,weatherlink.com 1.10,2017-03-30 18:14:00,
2017-03-30 14:29:00,45.3,25.0,30.22,West,278,1.0,5.0,45,0.00,,,0.00,weatherlink.com 1.10,2017-03-30 18:29:00,
2017-03-30 14:44:00,45.5,24.0,30.22,NNE,31,0.0,6.0,43,0.00,,,0.00,weatherlink.com 1.10,2017-03-30 18:44:00,
2017-03-30 14:59:00,45.7,24.0,30.22,NE,38,2.0,6.0,43,0.00,,,0.00,weatherlink.com 1.10,2017-03-30 18:59:00,
2017-03-30 15:14:00,44.7,24.0,30.22,ENE,70,5.0,9.0,44,0.00,,,0.00,weatherlink.com 1.10,2017-03-30 19:14:00,
2017-03-30 15:29:00,45.1,24.0,30.23,NNE,13,6.0,7.0,44,0.00,,,0.00,weatherlink.com 1.10,2017-03-30 19:29:00,
2017-03-30 15:44:00,45.7,24.0,30.22,NE,54,4.0,8.0,43,0.00,,,0.00,weatherlink.com 1.10,2017-03-30 19:44:00,
2017-03-30 15:59:00,45.5,24.0,30.21,SSW,193,0.0,3.0,43,0.00,,,0.00,weatherlink.com 1.10,2017-03-30 19:59:00,